Time;durP1;ratioP1;P1;durP2;ratioP2;P2;SDS_P1;SDS_P2;PMS_P1;PMS_P2;Temp;Humidity;BMP_temperature;BMP_pressure;BME280_temperature;BME280_humidity;BME280_pressure;Samples;Min_cycle;Max_cycle;Signal;HPM_P1;HPM_P2
2022/10/30 00:01:34;;;;;;;64.07;31.27;;;;;;;10.65;100.00;100257.56;4205838;28;20237;-72
2022/10/30 00:04:01;;;;;;;62.30;31.30;;;;;;;10.72;100.00;100251.50;4194252;28;20293;-70
2022/10/30 00:06:27;;;;;;;62.50;32.07;;;;;;;10.64;100.00;100254.06;4205854;28;20240;-71
2022/10/30 00:08:54;;;;;;;63.67;31.93;;;;;;;10.55;100.00;100242.50;4205921;28;21707;-74
2022/10/30 00:11:20;;;;;;;60.93;32.40;;;;;;;10.56;100.00;100252.16;4194724;28;21147;-72
2022/10/30 00:13:47;;;;;;;59.07;31.73;;;;;;;10.60;100.00;100244.72;4211604;28;20266;-72
2022/10/30 00:16:13;;;;;;;66.83;32.40;;;;;;;10.71;100.00;100238.34;4192092;28;20230;-73
2022/10/30 00:18:42;;;;;;;63.00;31.73;;;;;;;10.66;100.00;100243.28;4196115;28;20252;-71
2022/10/30 00:21:10;;;;;;;65.77;31.53;;;;;;;10.66;100.00;100243.28;4196512;28;20248;-70
2022/10/30 00:23:37;;;;;;;60.73;32.87;;;;;;;10.64;100.00;100240.78;4183553;28;21315;-71
2022/10/30 00:26:05;;;;;;;63.90;33.20;;;;;;;10.60;100.00;100235.91;4213914;28;20508;-71
2022/10/30 00:28:32;;;;;;;65.93;32.07;;;;;;;10.66;100.00;100235.31;4190837;28;21074;-73
2022/10/30 00:31:02;;;;;;;63.63;33.07;;;;;;;10.72;100.00;100235.53;4213947;28;20247;-72
2022/10/30 00:33:29;;;;;;;62.17;30.27;;;;;;;10.70;100.00;100242.84;4197716;28;20251;-72
2022/10/30 00:35:55;;;;;;;58.17;30.23;;;;;;;10.73;100.00;100239.03;4205789;28;21741;-74
2022/10/30 00:38:22;;;;;;;53.67;29.67;;;;;;;10.75;100.00;100239.72;4199904;28;22483;-73
2022/10/30 00:40:49;;;;;;;50.47;27.13;;;;;;;10.78;100.00;100242.06;4212256;28;20232;-73
2022/10/30 00:43:36;;;;;;;54.43;30.50;;;;;;;10.82;100.00;100245.28;4204439;28;20230;-72
2022/10/30 00:46:30;;;;;;;56.27;29.20;;;;;;;10.77;100.00;100243.91;4195039;28;22970;-71
2022/10/30 00:49:05;;;;;;;48.53;27.47;;;;;;;10.76;100.00;100223.59;4195988;28;20300;-71
2022/10/30 00:51:32;;;;;;;57.00;29.50;;;;;;;10.77;100.00;100216.47;4202959;28;20593;-72
2022/10/30 00:53:59;;;;;;;59.57;29.67;;;;;;;10.72;100.00;100208.94;4199305;28;20357;-75
2022/10/30 00:56:26;;;;;;;61.13;29.90;;;;;;;10.73;100.00;100215.09;4194605;28;20293;-72
2022/10/30 00:59:22;;;;;;;55.80;27.67;;;;;;;10.75;100.00;100213.13;4180001;28;20714;-74
2022/10/30 01:01:49;;;;;;;56.90;29.13;;;;;;;10.77;100.00;100216.47;4192300;28;20230;-70
2022/10/30 01:04:16;;;;;;;60.20;27.90;;;;;;;10.77;100.00;100221.78;4201261;28;20228;-71
2022/10/30 01:06:47;;;;;;;55.53;27.77;;;;;;;10.71;100.00;100230.38;4208561;28;20246;-73
2022/10/30 01:09:14;;;;;;;56.23;28.40;;;;;;;10.66;100.00;100235.31;4202399;28;21860;-74
2022/10/30 01:11:40;;;;;;;51.33;27.87;;;;;;;10.68;100.00;100225.34;4197073;28;21576;-74
2022/10/30 01:14:08;;;;;;;48.70;25.80;;;;;;;10.74;100.00;100228.22;4266073;28;20676;-70
2022/10/30 01:16:43;;;;;;;52.87;27.10;;;;;;;10.71;100.00;100217.88;4590812;23;20623;-74
2022/10/30 01:22:08;;;;;;;51.97;26.17;;;;;;;10.83;100.00;100226.47;4900838;28;20228;-75
2022/10/30 01:24:59;;;;;;;48.30;26.93;;;;;;;10.81;100.00;100235.63;4927091;28;20229;-76
2022/10/30 01:27:28;;;;;;;50.73;25.80;;;;;;;10.80;100.00;100234.78;4913120;28;20234;-76
2022/10/30 01:30:04;;;;;;;51.87;26.07;;;;;;;10.82;100.00;100239.97;4913202;28;20366;-76
2022/10/30 01:32:58;;;;;;;49.17;24.50;;;;;;;10.83;100.00;100236.31;4925718;28;20230;-75
2022/10/30 01:35:44;;;;;;;40.57;23.10;;;;;;;10.87;100.00;100232.34;4910645;29;20229;-75
2022/10/30 01:38:21;;;;;;;47.37;24.80;;;;;;;10.88;100.00;100234.00;4913361;28;20233;-74
2022/10/30 01:40:47;;;;;;;51.30;26.53;;;;;;;10.91;100.00;100231.91;4926648;28;20240;-72
2022/10/30 01:43:14;;;;;;;46.63;25.00;;;;;;;10.94;100.00;100236.09;4639356;28;20243;-71
2022/10/30 01:45:52;;;;;;;55.80;28.93;;;;;;;10.87;100.00;100237.69;4174910;28;20229;-72
2022/10/30 01:49:07;;;;;;;55.83;29.33;;;;;;;10.92;100.00;100240.72;4173102;28;23555;-72
2022/10/30 01:51:49;;;;;;;54.80;26.90;;;;;;;10.92;100.00;100233.56;4145826;29;20234;-71
2022/10/30 01:54:22;;;;;;;55.23;26.73;;;;;;;10.97;100.00;100227.78;4166721;28;20260;-74
2022/10/30 01:57:10;;;;;;;53.77;26.93;;;;;;;10.86;100.00;100231.50;4165127;28;20300;-70
2022/10/30 01:59:42;;;;;;;50.67;26.00;;;;;;;10.88;100.00;100229.53;4174913;28;20237;-72
2022/10/30 02:02:09;;;;;;;54.90;27.03;;;;;;;10.82;100.00;100234.66;4166709;28;20296;-72
2022/10/30 02:04:36;;;;;;;50.87;27.43;;;;;;;10.82;100.00;100224.00;4164237;28;25213;-70
2022/10/30 02:07:02;;;;;;;49.43;27.67;;;;;;;10.81;100.00;100217.81;4164397;28;20234;-71
2022/10/30 02:09:29;;;;;;;56.60;27.60;;;;;;;10.78;100.00;100229.59;4168077;28;20234;-70
2022/10/30 02:11:56;;;;;;;49.97;27.53;;;;;;;10.82;100.00;100224.81;4162254;28;20241;-72
2022/10/30 02:14:27;;;;;;;53.60;28.57;;;;;;;10.75;100.00;100235.25;4165657;28;20653;-71
2022/10/30 02:16:56;;;;;;;49.80;28.90;;;;;;;10.73;100.00;100234.53;4176399;28;20314;-70
2022/10/30 02:19:22;;;;;;;56.00;28.77;;;;;;;10.75;100.00;100231.75;4169216;28;20340;-71
2022/10/30 02:21:49;;;;;;;56.03;27.70;;;;;;;10.80;100.00;100234.78;4137395;28;1091318;-72
2022/10/30 02:24:16;;;;;;;51.13;28.40;;;;;;;10.76;100.00;100239.56;4168021;28;20953;-70
2022/10/30 02:26:43;;;;;;;53.30;27.63;;;;;;;10.82;100.00;100229.31;4171386;28;20304;-72
2022/10/30 02:29:09;;;;;;;58.27;29.60;;;;;;;10.83;100.00;100223.81;4168779;28;20400;-69
2022/10/30 02:31:36;;;;;;;54.23;29.03;;;;;;;10.80;100.00;100224.13;4167192;28;20310;-70
2022/10/30 02:34:03;;;;;;;59.73;30.60;;;;;;;10.77;100.00;100240.41;4163554;28;20244;-72
2022/10/30 02:36:30;;;;;;;60.87;30.57;;;;;;;10.75;100.00;100240.56;4169622;28;20234;-72
2022/10/30 02:38:56;;;;;;;62.40;30.80;;;;;;;10.76;100.00;100244.06;4161531;28;20305;-70
2022/10/30 02:41:23;;;;;;;52.43;28.70;;;;;;;10.82;100.00;100243.47;4165802;28;28323;-71
2022/10/30 02:43:52;;;;;;;51.97;28.70;;;;;;;10.87;100.00;100249.16;4169693;28;20303;-72
2022/10/30 02:46:19;;;;;;;61.47;29.97;;;;;;;10.90;100.00;100242.69;4168184;28;20356;-70
2022/10/30 02:48:45;;;;;;;53.73;30.57;;;;;;;10.84;100.00;100246.81;4165516;28;20267;-70
2022/10/30 02:51:12;;;;;;;70.03;30.83;;;;;;;10.86;100.00;100236.81;4166508;28;20314;-71
2022/10/30 02:53:38;;;;;;;52.23;27.37;;;;;;;10.92;100.00;100241.56;4172279;28;20356;-73
2022/10/30 02:56:10;;;;;;;57.10;27.63;;;;;;;10.97;100.00;100238.44;4185388;28;20237;-71
2022/10/30 02:58:37;;;;;;;61.80;27.73;;;;;;;10.94;100.00;100242.25;4174886;28;20243;-70
2022/10/30 03:01:05;;;;;;;53.70;28.17;;;;;;;10.91;100.00;100241.69;4168242;28;20235;-70
2022/10/30 03:03:31;;;;;;;44.07;24.67;;;;;;;10.94;100.00;100250.22;4168995;28;21578;-71
2022/10/30 03:06:03;;;;;;;58.93;27.57;;;;;;;10.95;100.00;100243.91;4173743;28;21083;-72
2022/10/30 03:08:29;;;;;;;51.23;26.37;;;;;;;10.97;100.00;100247.25;4186428;28;20378;-71
2022/10/30 03:11:07;;;;;;;56.33;28.10;;;;;;;11.00;100.00;100254.09;4166717;28;21634;-72
2022/10/30 03:13:34;;;;;;;51.23;27.13;;;;;;;10.92;100.00;100252.19;4175379;28;23391;-71
2022/10/30 03:16:03;;;;;;;45.93;26.03;;;;;;;10.97;100.00;100259.72;4171297;28;20241;-69
2022/10/30 03:18:29;;;;;;;53.17;26.83;;;;;;;11.02;100.00;100256.63;4171972;28;20246;-71
2022/10/30 03:20:57;;;;;;;50.60;26.43;;;;;;;10.93;100.00;100264.53;4174957;28;20565;-72
2022/10/30 03:23:25;;;;;;;51.80;27.50;;;;;;;10.97;100.00;100271.22;4178442;28;21891;-72
2022/10/30 03:25:54;;;;;;;45.80;25.60;;;;;;;10.97;100.00;100271.22;4181619;28;21809;-72
2022/10/30 03:28:26;;;;;;;53.50;28.90;;;;;;;10.93;100.00;100275.19;4177381;28;20466;-72
2022/10/30 03:31:04;;;;;;;52.87;27.43;;;;;;;10.93;100.00;100274.31;4175261;28;25084;-71
2022/10/30 03:33:31;;;;;;;51.67;27.80;;;;;;;10.96;100.00;100269.56;4173094;28;20235;-71
2022/10/30 03:35:58;;;;;;;53.23;27.93;;;;;;;10.93;100.00;100269.00;4167583;28;20241;-71
2022/10/30 03:38:25;;;;;;;49.43;26.93;;;;;;;10.98;100.00;100266.75;4190000;28;20229;-71
2022/10/30 03:40:52;;;;;;;50.67;26.93;;;;;;;10.97;100.00;100265.88;4162033;28;20309;-70
2022/10/30 03:43:19;;;;;;;50.00;27.20;;;;;;;10.92;100.00;100270.00;4167940;28;20253;-72
2022/10/30 03:45:51;;;;;;;48.70;26.60;;;;;;;10.90;100.00;100267.47;4172139;28;20245;-71
2022/10/30 03:48:19;;;;;;;50.73;29.20;;;;;;;10.82;100.00;100267.41;4177576;28;20353;-69
2022/10/30 03:50:46;;;;;;;52.93;28.97;;;;;;;10.88;100.00;100266.78;4157600;28;20240;-72
2022/10/30 03:53:12;;;;;;;52.10;27.77;;;;;;;10.88;100.00;100264.13;4177671;28;20337;-70
2022/10/30 03:55:39;;;;;;;52.70;28.50;;;;;;;10.84;100.00;100265.44;4174963;28;20588;-71
2022/10/30 03:58:06;;;;;;;55.53;29.63;;;;;;;10.87;100.00;100264.31;4193767;28;23443;-71
2022/10/30 04:00:34;;;;;;;60.27;29.17;;;;;;;10.93;100.00;100275.19;4153482;28;20314;-71
2022/10/30 04:03:01;;;;;;;48.60;27.87;;;;;;;10.92;100.00;100278.00;4178824;28;20270;-70
2022/10/30 04:05:28;;;;;;;57.00;29.47;;;;;;;10.94;100.00;100276.84;4159947;28;20246;-70
2022/10/30 04:08:02;;;;;;;56.97;28.87;;;;;;;10.93;100.00;100277.84;4169197;28;20345;-70
2022/10/30 04:10:29;;;;;;;51.53;28.20;;;;;;;10.91;100.00;100268.31;4178379;28;22182;-71
2022/10/30 04:13:00;;;;;;;50.93;26.90;;;;;;;10.90;100.00;100270.16;4169777;28;20241;-72
2022/10/30 04:15:26;;;;;;;56.67;27.30;;;;;;;10.94;100.00;100271.53;4174601;28;20441;-70
2022/10/30 04:17:53;;;;;;;52.00;28.73;;;;;;;10.87;100.00;100265.13;4164647;28;20283;-70
2022/10/30 04:20:20;;;;;;;52.23;29.47;;;;;;;10.92;100.00;100268.16;4186869;28;20858;-69
2022/10/30 04:22:47;;;;;;;56.53;28.80;;;;;;;10.99;100.00;100266.56;4181088;28;25004;-69
2022/10/30 04:25:13;;;;;;;51.03;25.40;;;;;;;11.00;100.00;100267.41;4180612;28;20305;-70
2022/10/30 04:27:43;;;;;;;51.60;28.03;;;;;;;10.99;100.00;100271.06;4172849;28;20237;-71
2022/10/30 04:30:11;;;;;;;48.23;25.90;;;;;;;10.96;100.00;100260.72;4177688;28;21912;-72
2022/10/30 04:32:52;;;;;;;53.10;28.07;;;;;;;10.96;100.00;100252.75;4174364;28;25715;-72
2022/10/30 04:35:21;;;;;;;48.33;28.53;;;;;;;10.95;100.00;100257.22;4167878;28;20285;-70
2022/10/30 04:38:09;;;;;;;54.73;27.80;;;;;;;10.92;100.00;100260.19;4183565;28;20230;-70
2022/10/30 04:40:38;;;;;;;49.13;27.37;;;;;;;10.94;100.00;100257.38;4172872;28;21989;-70
2022/10/30 04:43:05;;;;;;;50.23;26.73;;;;;;;10.98;100.00;100251.59;4167926;28;20238;-71
2022/10/30 04:45:32;;;;;;;57.00;29.30;;;;;;;10.89;100.00;100241.03;4171040;28;20238;-71
2022/10/30 04:48:06;;;;;;;53.90;28.77;;;;;;;10.92;100.00;100236.22;4186628;28;23500;-70
2022/10/30 04:50:33;;;;;;;66.20;29.00;;;;;;;10.87;100.00;100233.19;4174656;28;20246;-71
2022/10/30 04:53:02;;;;;;;54.60;29.80;;;;;;;10.82;100.00;100234.66;4180663;28;20230;-74
2022/10/30 04:55:29;;;;;;;54.90;29.50;;;;;;;10.87;100.00;100230.53;4172618;28;22473;-70
2022/10/30 04:57:57;;;;;;;50.40;28.53;;;;;;;10.86;100.00;100238.66;4167665;28;21603;-70
2022/10/30 05:00:25;;;;;;;55.17;29.90;;;;;;;10.84;100.00;100227.31;4178082;28;20250;-71
2022/10/30 05:02:52;;;;;;;53.27;28.37;;;;;;;10.85;100.00;100231.66;4191407;28;21092;-71
2022/10/30 05:05:19;;;;;;;54.60;29.33;;;;;;;10.88;100.00;100245.50;4168647;28;21860;-71
2022/10/30 05:07:46;;;;;;;55.40;28.50;;;;;;;10.84;100.00;100248.59;4163881;28;20235;-71
2022/10/30 05:10:17;;;;;;;59.43;30.27;;;;;;;10.86;100.00;100254.63;4159788;28;20234;-71
2022/10/30 05:12:44;;;;;;;59.67;29.20;;;;;;;10.84;100.00;100254.78;4170902;28;20264;-72
2022/10/30 05:15:12;;;;;;;57.60;27.90;;;;;;;10.77;100.00;100253.72;4169220;28;21814;-71
2022/10/30 05:17:38;;;;;;;60.73;29.80;;;;;;;10.80;100.00;100257.91;4173964;28;20333;-73
2022/10/30 05:20:05;;;;;;;57.87;30.43;;;;;;;10.79;100.00;100265.03;4185123;28;20238;-69
2022/10/30 05:22:32;;;;;;;54.13;28.43;;;;;;;10.80;100.00;100269.38;4167344;28;20252;-72
2022/10/30 05:24:58;;;;;;;51.03;29.90;;;;;;;10.75;100.00;100271.66;4163975;28;20236;-71
2022/10/30 05:27:25;;;;;;;54.63;29.10;;;;;;;10.73;100.00;100273.63;4183006;28;20263;-70
2022/10/30 05:29:51;;;;;;;53.97;29.83;;;;;;;10.80;100.00;100280.03;4160459;28;20304;-72
2022/10/30 05:32:18;;;;;;;59.43;31.17;;;;;;;10.81;100.00;100281.69;4167076;28;21123;-70
2022/10/30 05:34:45;;;;;;;54.93;30.53;;;;;;;10.77;100.00;100280.34;4171312;28;20694;-71
2022/10/30 05:37:11;;;;;;;52.30;29.10;;;;;;;10.85;100.00;100288.41;4163612;28;20240;-72
2022/10/30 05:39:38;;;;;;;53.47;29.80;;;;;;;10.80;100.00;100298.66;4169200;28;22218;-70
2022/10/30 05:42:04;;;;;;;61.10;30.20;;;;;;;10.83;100.00;100295.69;4172811;28;20250;-70
2022/10/30 05:44:36;;;;;;;57.50;30.60;;;;;;;10.84;100.00;100291.19;4180490;28;20230;-69
2022/10/30 05:47:23;;;;;;;61.83;31.00;;;;;;;10.83;100.00;100286.88;4166307;28;20235;-70
2022/10/30 05:49:50;;;;;;;58.83;30.47;;;;;;;10.87;100.00;100291.75;4170577;28;20340;-69
2022/10/30 05:52:17;;;;;;;62.57;31.53;;;;;;;10.95;100.00;100297.16;4188423;28;21789;-70
2022/10/30 05:54:43;;;;;;;60.50;31.17;;;;;;;10.91;100.00;100287.81;4188207;28;21390;-42
2022/10/30 05:57:10;;;;;;;60.90;31.07;;;;;;;10.90;100.00;100295.94;4209909;28;20233;-71
2022/10/30 05:59:37;;;;;;;58.40;30.47;;;;;;;10.94;100.00;100298.16;4190449;28;20238;-73
2022/10/30 06:02:03;;;;;;;57.00;29.70;;;;;;;10.95;100.00;100299.81;4180248;28;20363;-72
2022/10/30 06:04:30;;;;;;;50.90;29.43;;;;;;;10.97;100.00;100292.50;4179002;28;20399;-71
2022/10/30 06:06:56;;;;;;;61.87;29.13;;;;;;;10.91;100.00;100287.81;4174581;28;20248;-75
2022/10/30 06:09:23;;;;;;;56.87;30.60;;;;;;;10.99;100.00;100287.03;4195559;28;21281;-70
2022/10/30 06:11:50;;;;;;;56.70;30.10;;;;;;;10.91;100.00;100270.97;4161681;28;20345;-70
2022/10/30 06:14:16;;;;;;;61.23;30.93;;;;;;;10.90;100.00;100264.81;4167083;28;21970;-71
2022/10/30 06:16:43;;;;;;;58.87;30.97;;;;;;;10.92;100.00;100262.84;4182275;28;20237;-71
2022/10/30 06:19:10;;;;;;;64.77;30.67;;;;;;;10.96;100.00;100263.41;4166494;28;20518;-71
2022/10/30 06:21:44;;;;;;;61.57;31.30;;;;;;;11.01;100.00;100249.63;4212004;28;20291;-71
2022/10/30 06:24:11;;;;;;;57.37;31.03;;;;;;;11.12;100.00;100257.34;4191437;28;22279;-69
2022/10/30 06:26:37;;;;;;;59.73;30.27;;;;;;;11.14;100.00;100263.38;4181135;28;20242;-69
2022/10/30 06:29:04;;;;;;;65.43;29.97;;;;;;;11.08;100.00;100270.16;4176819;28;20340;-70
2022/10/30 06:31:31;;;;;;;62.70;28.43;;;;;;;11.16;100.00;100264.06;4189267;28;20355;-67
2022/10/30 06:33:57;;;;;;;52.60;28.27;;;;;;;11.25;100.00;100268.47;4172716;28;20318;-69
2022/10/30 06:36:25;;;;;;;53.70;27.87;;;;;;;11.25;100.00;100284.44;4173660;28;20282;-75
2022/10/30 06:38:51;;;;;;;62.23;29.90;;;;;;;11.28;100.00;100280.66;4176309;28;21634;-71
2022/10/30 06:41:18;;;;;;;48.80;28.30;;;;;;;11.26;100.00;100286.16;4170997;28;21024;-69
2022/10/30 06:43:45;;;;;;;55.40;28.90;;;;;;;11.31;100.00;100286.53;4170907;28;20264;-67
2022/10/30 06:46:11;;;;;;;54.63;27.30;;;;;;;11.30;100.00;100287.50;4164888;28;21924;-69
2022/10/30 06:48:38;;;;;;;52.80;28.60;;;;;;;11.26;100.00;100291.47;4174556;28;21764;-70
2022/10/30 06:51:04;;;;;;;56.30;29.33;;;;;;;11.16;100.00;100280.03;4164356;28;21013;-72
2022/10/30 06:53:31;;;;;;;55.97;28.37;;;;;;;11.17;100.00;100292.38;4179278;28;21709;-71
2022/10/30 06:56:02;;;;;;;58.60;29.00;;;;;;;11.18;100.00;100304.69;4185738;28;20244;-72
2022/10/30 06:58:29;;;;;;;49.97;28.30;;;;;;;11.19;100.00;100309.03;4164133;28;21635;-73
2022/10/30 07:00:58;;;;;;;60.33;29.10;;;;;;;11.16;100.00;100296.03;4177925;28;21213;-72
2022/10/30 07:03:25;;;;;;;56.57;29.77;;;;;;;11.19;100.00;100304.56;4191152;28;20241;-70
2022/10/30 07:05:51;;;;;;;60.37;27.33;;;;;;;11.32;100.00;100303.34;4170738;28;20242;-74
2022/10/30 07:08:18;;;;;;;55.97;28.57;;;;;;;11.31;100.00;100302.50;4171264;28;20559;-70
2022/10/30 07:10:45;;;;;;;59.80;28.97;;;;;;;11.41;100.00;100310.41;4180684;28;20247;-73
2022/10/30 07:13:12;;;;;;;49.77;26.93;;;;;;;11.51;100.00;100304.97;4195172;28;20369;-71
2022/10/30 07:15:38;;;;;;;54.30;27.93;;;;;;;11.55;100.00;100299.19;4192754;28;20467;-71
2022/10/30 07:18:05;;;;;;;53.80;27.03;;;;;;;11.65;100.00;100300.94;4175577;28;20574;-77
2022/10/30 07:20:33;;;;;;;55.53;27.27;;;;;;;11.66;100.00;100308.78;4175670;28;20308;-73
2022/10/30 07:23:00;;;;;;;49.80;26.10;;;;;;;11.67;100.00;100310.44;4166041;28;20419;-74
2022/10/30 07:25:27;;;;;;;52.10;25.90;;;;;;;11.72;100.00;100297.47;4163184;28;20412;-77
2022/10/30 07:27:54;;;;;;;46.93;25.00;;;;;;;11.71;100.00;100301.16;4186690;28;20232;-75
2022/10/30 07:30:23;;;;;;;42.33;24.63;;;;;;;11.74;100.00;100303.50;4185128;28;21663;-75
2022/10/30 07:32:57;;;;;;;48.70;23.97;;;;;;;11.79;100.00;100301.19;4182812;28;20237;-76
2022/10/30 07:35:25;;;;;;;50.60;24.77;;;;;;;11.92;100.00;100308.00;4198495;28;21564;-75
2022/10/30 07:37:52;;;;;;;45.57;23.97;;;;;;;11.99;100.00;100291.19;4182655;28;23235;-69
2022/10/30 07:40:19;;;;;;;46.10;22.67;;;;;;;12.09;100.00;100287.59;4169546;28;21829;-70
2022/10/30 07:42:46;;;;;;;47.47;23.80;;;;;;;12.17;100.00;100280.44;4177795;28;20431;-70
2022/10/30 07:45:12;;;;;;;41.63;22.97;;;;;;;12.30;100.00;100284.53;4187955;28;20586;-71
2022/10/30 07:47:40;;;;;;;47.50;23.20;;;;;;;12.40;100.00;100291.38;4155267;28;21182;-75
2022/10/30 07:50:08;;;;;;;38.63;21.00;;;;;;;12.35;100.00;100295.56;4154302;28;21761;-74
2022/10/30 07:52:34;;;;;;;40.47;21.47;;;;;;;12.27;100.00;100288.34;4179663;28;20257;-71
2022/10/30 07:55:01;;;;;;;40.33;20.80;;;;;;;12.28;100.00;100297.19;4167911;28;20237;-70
2022/10/30 07:57:35;;;;;;;37.23;20.70;;;;;;;12.40;100.00;100301.25;4161651;28;20237;-72
2022/10/30 08:00:04;;;;;;;40.60;20.80;;;;;;;12.39;100.00;100299.56;4208687;28;20312;-72
2022/10/30 08:02:31;;;;;;;41.97;21.00;;;;;;;12.48;100.00;100298.63;4178258;28;20245;-72
2022/10/30 08:04:58;;;;;;;39.20;20.57;;;;;;;12.48;100.00;100308.44;4155003;28;21601;-69
2022/10/30 08:07:31;;;;;;;37.53;20.40;;;;;;;12.64;100.00;100305.81;4177814;28;20234;-68
2022/10/30 08:09:58;;;;;;;39.00;20.43;;;;;;;12.57;100.00;100305.66;4179073;28;23139;-69
2022/10/30 08:12:26;;;;;;;36.87;19.70;;;;;;;12.70;100.00;100309.69;4181921;28;20245;-67
2022/10/30 08:14:53;;;;;;;39.63;20.33;;;;;;;12.72;100.00;100305.03;4170948;28;20245;-69
2022/10/30 08:17:20;;;;;;;38.80;19.97;;;;;;;12.62;100.00;100295.34;4184244;28;21231;-70
2022/10/30 08:19:46;;;;;;;37.57;20.27;;;;;;;12.73;100.00;100301.38;4188290;28;20499;-70
2022/10/30 08:22:13;;;;;;;34.47;19.37;;;;;;;12.77;100.00;100298.19;4197256;28;20313;-67
2022/10/30 08:24:40;;;;;;;34.80;19.63;;;;;;;12.91;100.00;100291.41;4183648;28;20405;-71
2022/10/30 08:27:06;;;;;;;35.77;19.23;;;;;;;13.02;100.00;100301.78;4246575;28;20853;-68
2022/10/30 08:29:33;;;;;;;37.53;19.97;;;;;;;13.18;100.00;100305.47;4199051;28;21066;-71
2022/10/30 08:32:00;;;;;;;32.03;18.67;;;;;;;13.13;100.00;100318.47;4207487;28;20271;-69
2022/10/30 08:34:27;;;;;;;32.17;18.67;;;;;;;13.19;100.00;100318.66;4158042;28;20242;-71
2022/10/30 08:36:53;;;;;;;29.87;17.00;;;;;;;13.28;100.00;100327.56;4186242;28;21095;-68
2022/10/30 08:39:20;;;;;;;34.03;17.00;;;;;;;13.23;100.00;100316.50;4175164;28;25739;-70
2022/10/30 08:41:46;;;;;;;37.03;18.63;;;;;;;13.13;100.00;100319.31;4181485;28;20601;-68
2022/10/30 08:44:13;;;;;;;37.60;18.10;;;;;;;13.08;100.00;100318.97;4168948;28;22050;-70
2022/10/30 08:46:40;;;;;;;34.67;18.30;;;;;;;13.14;100.00;100322.84;4207938;28;20884;-69
2022/10/30 08:49:06;;;;;;;34.07;16.37;;;;;;;13.22;100.00;100322.84;4192535;28;23027;-73
2022/10/30 08:51:34;;;;;;;36.60;17.80;;;;;;;13.26;100.00;100316.16;4177420;28;20330;-70
2022/10/30 08:54:00;;;;;;;37.17;17.20;;;;;;;13.35;100.00;100307.19;4178494;28;24146;-70
2022/10/30 08:56:27;;;;;;;31.50;17.70;;;;;;;13.50;100.00;100305.50;4201269;28;20596;-69
2022/10/30 08:58:53;;;;;;;33.13;16.80;;;;;;;13.59;100.00;100303.69;4220608;28;20289;-70
2022/10/30 09:01:20;;;;;;;31.57;16.30;;;;;;;13.62;100.00;100311.34;4175569;28;20223;-68
2022/10/30 09:03:47;;;;;;;34.90;16.60;;;;;;;13.50;100.00;100305.50;4215486;28;20242;-72
2022/10/30 09:06:13;;;;;;;31.47;16.53;;;;;;;13.47;100.00;100310.38;4209289;28;20243;-71
2022/10/30 09:08:40;;;;;;;35.20;16.43;;;;;;;13.46;100.00;100317.56;4194207;28;21059;-71
2022/10/30 09:11:06;;;;;;;36.30;17.00;;;;;;;13.52;100.00;100314.19;4200404;28;20308;-71
2022/10/30 09:13:33;;;;;;;28.87;16.47;;;;;;;13.37;100.00;100315.88;4172294;28;20408;-70
2022/10/30 09:16:00;;;;;;;32.10;16.90;;;;;;;13.27;100.00;100315.16;4183023;28;22273;-68
2022/10/30 09:18:27;;;;;;;26.93;16.17;;;;;;;13.27;100.00;100321.41;4176889;28;20246;-71
2022/10/30 09:20:54;;;;;;;35.27;16.43;;;;;;;13.32;100.00;100312.84;4190909;28;20253;-69
2022/10/30 09:23:20;;;;;;;28.83;15.70;;;;;;;13.37;100.00;100318.56;4184032;28;20555;-71
2022/10/30 09:25:47;;;;;;;30.03;16.17;;;;;;;13.24;100.00;100305.63;4195647;28;20337;-69
2022/10/30 09:28:13;;;;;;;32.30;16.13;;;;;;;13.14;100.00;100310.31;4191175;28;20229;-70
2022/10/30 09:30:40;;;;;;;32.03;16.07;;;;;;;13.12;100.00;100314.97;4180996;28;20230;-70
2022/10/30 09:33:07;;;;;;;26.23;15.23;;;;;;;13.22;100.00;100322.84;4163820;28;20246;-71
2022/10/30 09:35:35;;;;;;;31.13;16.47;;;;;;;13.17;100.00;100315.31;4183024;28;21628;-71
2022/10/30 09:38:02;;;;;;;32.70;16.60;;;;;;;13.19;100.00;100309.81;4174612;28;20315;-70
2022/10/30 09:40:47;;;;;;;39.97;16.10;;;;;;;13.35;100.00;100309.88;4208176;28;21508;-69
2022/10/30 09:43:16;;;;;;;31.50;15.57;;;;;;;13.34;100.00;100321.53;4172843;28;20282;-71
2022/10/30 09:45:51;;;;;;;29.17;15.43;;;;;;;13.47;100.00;100321.91;4182134;28;20262;-69
2022/10/30 09:48:39;;;;;;;33.50;16.10;;;;;;;13.42;100.00;100331.44;4171862;28;20241;-70
2022/10/30 09:51:40;;;;;;;32.33;16.80;;;;;;;13.43;100.00;100333.91;4174753;28;20268;-72
2022/10/30 09:54:22;;;;;;;31.17;15.93;;;;;;;13.28;100.00;100327.56;4176714;28;20237;-70
2022/10/30 09:57:00;;;;;;;28.27;14.57;;;;;;;13.35;100.00;100325.91;4181512;28;20415;-71
2022/10/30 09:59:54;;;;;;;33.77;15.50;;;;;;;13.43;100.00;100323.22;4171428;28;20238;-72
2022/10/30 10:02:31;;;;;;;38.10;15.80;;;;;;;13.49;100.00;100322.56;4187345;28;20301;-70
2022/10/30 10:05:03;;;;;;;27.67;15.07;;;;;;;13.61;100.00;100315.03;4171763;28;20317;-70
2022/10/30 10:07:34;;;;;;;29.50;15.50;;;;;;;13.67;100.00;100311.72;4177335;28;20244;-71
2022/10/30 10:10:12;;;;;;;29.27;15.03;;;;;;;13.86;100.00;100326.56;4217161;28;20242;-71
2022/10/30 10:12:42;;;;;;;30.83;15.37;;;;;;;13.82;100.00;100319.06;4167738;28;20337;-71
2022/10/30 10:15:15;;;;;;;32.23;15.33;;;;;;;13.76;100.00;100325.06;4181962;28;20236;-70
2022/10/30 10:17:43;;;;;;;32.43;14.97;;;;;;;13.70;100.00;100310.53;4212561;28;20778;-70
2022/10/30 10:20:42;;;;;;;28.53;14.37;;;;;;;13.74;100.00;100322.53;4196013;28;20243;-72
2022/10/30 10:23:18;;;;;;;30.93;14.67;;;;;;;13.77;100.00;100316.88;4188896;28;20316;-69
2022/10/30 10:25:52;;;;;;;26.87;14.33;;;;;;;13.72;100.00;100319.22;4197272;28;20266;-70
2022/10/30 10:28:35;;;;;;;26.10;14.53;;;;;;;13.62;100.00;100323.91;4184649;28;22197;-71
2022/10/30 10:31:30;;;;;;;24.70;13.10;;;;;;;13.63;100.00;100322.91;4222461;28;21027;-69
2022/10/30 10:34:29;;;;;;;25.50;12.30;;;;;;;13.84;100.00;100325.06;4195875;28;20295;-72
2022/10/30 10:37:19;;;;;;;29.13;12.63;;;;;;;14.14;99.01;100335.06;4174229;28;20230;-72
2022/10/30 10:39:58;;;;;;;22.13;11.23;;;;;;;14.49;97.31;100332.09;4171290;28;20293;-69
2022/10/30 10:42:35;;;;;;;21.90;11.33;;;;;;;14.52;96.82;100327.22;4199309;28;20246;-71
2022/10/30 10:45:20;;;;;;;22.67;10.60;;;;;;;14.58;95.61;100325.72;4200681;28;20244;-70
2022/10/30 10:48:21;;;;;;;21.93;10.47;;;;;;;14.40;96.36;100314.38;4202605;28;20299;-70
2022/10/30 10:50:50;;;;;;;20.67;9.97;;;;;;;14.36;93.79;100312.06;4182326;28;21584;-71
2022/10/30 10:53:28;;;;;;;18.23;8.27;;;;;;;14.29;93.16;100307.56;4161335;28;20406;-70
2022/10/30 10:55:57;;;;;;;22.63;9.57;;;;;;;14.30;94.37;100304.69;4180559;28;22585;-70
2022/10/30 10:58:30;;;;;;;18.03;9.40;;;;;;;14.21;95.23;100308.44;4186100;28;20315;-70
2022/10/30 11:00:58;;;;;;;17.23;7.50;;;;;;;14.25;91.10;100307.06;4173422;28;25447;-71
2022/10/30 11:03:34;;;;;;;18.17;6.93;;;;;;;14.15;90.26;100309.94;4192023;28;21822;-69
2022/10/30 11:06:14;;;;;;;14.73;6.33;;;;;;;14.15;89.47;100304.59;4170078;28;21297;-71
2022/10/30 11:08:41;;;;;;;15.77;6.40;;;;;;;14.16;88.05;100300.06;4155068;28;20337;-70
2022/10/30 11:11:07;;;;;;;14.63;5.73;;;;;;;14.18;88.01;100298.06;4168924;28;25536;-70
2022/10/30 11:13:36;;;;;;;11.37;5.47;;;;;;;14.35;86.23;100309.53;4182534;28;21201;-71
2022/10/30 11:16:27;;;;;;;14.20;5.73;;;;;;;14.51;85.19;100303.28;4162442;28;20239;-70
2022/10/30 11:18:58;;;;;;;15.23;6.30;;;;;;;14.41;86.67;100303.50;4182829;28;20241;-69